Amber, NY

7:09 AM EDT on September 30, 2014 (GMT -0400)
Oak Hill, Otisco | Change Station
CLOSE
Current Station
Personal Weather Station
Location: Marietta, NY
Elevation: 1237 ft
Nearby Weather Stations

Elev 1237 ft 42.87 °N, 76.24 °W | Updated 1 second ago

Partly Cloudy
Partly Cloudy
55.8 °F
Feels Like 55.8 °F
N
0.0
Wind Variable Wind from East
Gusts 0.0 mph

Today
High -- | Low -- °F
--% Chance of Precip.
Yesterday
High -- | Low -- °F
Precip. -- in
7:01 AM 6:48 PM
Waxing Crescent, 35% visible
Pressure 29.89 in
Visibility 8.0 miles
Clouds Few 6000 ft
Few 8000 ft
Scattered Clouds 25000 ft
Dew Point 55 °F
Humidity 99%
Rainfall 0.00 in
Snow Depth Not available.
UV 0 out of 12
Pollen 2.50 out of 12
Ozone Good
PM2.5 Good
Flu Activity Not available.
METAR KSYR 301054Z COR 00000KT 8SM BCFG FEW060 FEW080 SCT250 12/11 A2990 RMK AO2 SLP121 T01170111

More Conditions Fewer Conditions

Pressure 29.89 in
Visibility 8.0 miles
Clouds Few 6000 ft
Few 8000 ft
Scattered Clouds 25000 ft
Dew Point 55 °F
Humidity 99%
Rainfall 0.00 in
Snow Depth Not available.
UV 0 out of 12
Pollen 2.50 out of 12
Ozone Good
PM2.5 Good
Flu Activity Not available.
METAR KSYR 301054Z COR 00000KT 8SM BCFG FEW060 FEW080 SCT250 12/11 A2990 RMK AO2 SLP121 T01170111

More Conditions Fewer Conditions

10-Day Weather Forecast

Almanac

Astronomy

Sep. 30, 2014 Rise Set
Actual Time 7:01 AM EDT 6:48 PM EDT
Civil Twilight 6:33 AM EDT 7:16 PM EDT
Nautical Twilight 6:00 AM EDT 7:49 PM EDT
Astronomical Twilight 5:26 AM EDT 8:22 PM EDT
Moon 1:13 PM EDT 11:09 PM EDT
Length of Visible Light 12h 43m
Length of Day
11h 46m
Tomorrow will be 2m 53s shorter.
Waxing Crescent, 35% of the Moon is Illuminated
Today
Waxing Crescent
Oct 1
First Quarter
Oct 8
Full
Oct 15
Last Quarter
Oct 23
New

Today's Extremes

State Highs State Lows

Community

WunderPhotos

Upload Photos

1,757,612 photos uploaded!

WunderBlogs® & News

Nearby

Air Quality

  Air Quality AQ Index Pollutant
Yesterday Good
OZONE
Yesterday Good
PM2.5
Current Good
PM2.5
Current Good
OZONE
Tuesday Moderate
PM2.5
Tuesday Good
OZONE

Snow Depth

Station Depth Elevation
No new snow has been reported.

Earthquake Activity

City Distance Mag. Time & Date
No recent earthquake activity has been reported nearby.
Minimum magnitude displayed is 2.5.

Coastal Water Temperatures

Place Temperature
No Stations Reporting

Nearby Weather Stations